sensor_id;sensor_type;location;lat;lon;timestamp;P1;durP1;ratioP1;P2;durP2;ratioP2
37715;SDS011;23562;50.540;12.504;2023-06-05T00:02:09;2.77;;;2.00;;
37715;SDS011;23562;50.540;12.504;2023-06-05T00:04:34;6.40;;;2.33;;
37715;SDS011;23562;50.540;12.504;2023-06-05T00:07:04;3.72;;;2.25;;
37715;SDS011;23562;50.540;12.504;2023-06-05T00:09:29;4.13;;;2.25;;
37715;SDS011;23562;50.540;12.504;2023-06-05T00:11:54;3.35;;;2.10;;
37715;SDS011;23562;50.540;12.504;2023-06-05T00:14:20;4.28;;;2.10;;
37715;SDS011;23562;50.540;12.504;2023-06-05T00:16:45;5.40;;;2.20;;
37715;SDS011;23562;50.540;12.504;2023-06-05T00:19:10;5.67;;;2.33;;
37715;SDS011;23562;50.540;12.504;2023-06-05T00:21:35;4.85;;;2.00;;
37715;SDS011;23562;50.540;12.504;2023-06-05T00:24:01;5.28;;;2.05;;
37715;SDS011;23562;50.540;12.504;2023-06-05T00:26:26;3.00;;;2.10;;
37715;SDS011;23562;50.540;12.504;2023-06-05T00:28:51;2.63;;;1.93;;
37715;SDS011;23562;50.540;12.504;2023-06-05T00:31:16;4.83;;;2.20;;
37715;SDS011;23562;50.540;12.504;2023-06-05T00:33:43;9.07;;;2.25;;
37715;SDS011;23562;50.540;12.504;2023-06-05T00:36:08;5.70;;;2.50;;
37715;SDS011;23562;50.540;12.504;2023-06-05T00:38:33;5.18;;;2.35;;
37715;SDS011;23562;50.540;12.504;2023-06-05T00:40:59;4.27;;;2.13;;
37715;SDS011;23562;50.540;12.504;2023-06-05T00:43:24;5.80;;;2.20;;
37715;SDS011;23562;50.540;12.504;2023-06-05T00:45:50;2.80;;;1.70;;
37715;SDS011;23562;50.540;12.504;2023-06-05T00:48:17;3.25;;;2.00;;
37715;SDS011;23562;50.540;12.504;2023-06-05T00:50:42;5.80;;;2.20;;
37715;SDS011;23562;50.540;12.504;2023-06-05T00:53:07;6.82;;;2.15;;
37715;SDS011;23562;50.540;12.504;2023-06-05T00:55:32;3.90;;;1.80;;
37715;SDS011;23562;50.540;12.504;2023-06-05T00:57:58;3.28;;;2.22;;
37715;SDS011;23562;50.540;12.504;2023-06-05T01:00:25;3.47;;;2.03;;
37715;SDS011;23562;50.540;12.504;2023-06-05T01:02:51;5.68;;;2.40;;
37715;SDS011;23562;50.540;12.504;2023-06-05T01:05:21;3.63;;;2.10;;
37715;SDS011;23562;50.540;12.504;2023-06-05T01:07:47;5.28;;;2.22;;
37715;SDS011;23562;50.540;12.504;2023-06-05T01:10:15;4.75;;;2.08;;
37715;SDS011;23562;50.540;12.504;2023-06-05T01:12:45;4.25;;;2.30;;
37715;SDS011;23562;50.540;12.504;2023-06-05T01:15:11;3.88;;;2.20;;
37715;SDS011;23562;50.540;12.504;2023-06-05T01:17:36;4.28;;;2.20;;
37715;SDS011;23562;50.540;12.504;2023-06-05T01:20:02;6.45;;;2.40;;
37715;SDS011;23562;50.540;12.504;2023-06-05T01:22:28;3.55;;;2.30;;
37715;SDS011;23562;50.540;12.504;2023-06-05T01:24:53;3.67;;;2.10;;
37715;SDS011;23562;50.540;12.504;2023-06-05T01:27:20;3.30;;;2.30;;
37715;SDS011;23562;50.540;12.504;2023-06-05T01:30:05;3.90;;;2.30;;
37715;SDS011;23562;50.540;12.504;2023-06-05T01:32:37;3.42;;;1.90;;
37715;SDS011;23562;50.540;12.504;2023-06-05T01:35:06;4.47;;;2.00;;
37715;SDS011;23562;50.540;12.504;2023-06-05T01:37:32;4.05;;;2.38;;
37715;SDS011;23562;50.540;12.504;2023-06-05T01:40:05;2.65;;;1.83;;
37715;SDS011;23562;50.540;12.504;2023-06-05T01:42:31;2.63;;;1.67;;
37715;SDS011;23562;50.540;12.504;2023-06-05T01:44:56;3.58;;;2.03;;
37715;SDS011;23562;50.540;12.504;2023-06-05T01:47:21;3.53;;;2.20;;
37715;SDS011;23562;50.540;12.504;2023-06-05T01:49:47;3.45;;;2.00;;
37715;SDS011;23562;50.540;12.504;2023-06-05T01:52:12;2.87;;;1.80;;
37715;SDS011;23562;50.540;12.504;2023-06-05T01:54:37;9.23;;;2.13;;
37715;SDS011;23562;50.540;12.504;2023-06-05T01:57:03;4.07;;;2.10;;
37715;SDS011;23562;50.540;12.504;2023-06-05T01:59:29;5.85;;;2.05;;
37715;SDS011;23562;50.540;12.504;2023-06-05T02:01:54;2.65;;;2.03;;
37715;SDS011;23562;50.540;12.504;2023-06-05T02:04:19;2.87;;;1.90;;
37715;SDS011;23562;50.540;12.504;2023-06-05T02:06:45;3.08;;;2.10;;
37715;SDS011;23562;50.540;12.504;2023-06-05T02:09:10;3.93;;;1.97;;
37715;SDS011;23562;50.540;12.504;2023-06-05T02:11:36;4.40;;;2.03;;
37715;SDS011;23562;50.540;12.504;2023-06-05T02:14:02;3.03;;;1.95;;
37715;SDS011;23562;50.540;12.504;2023-06-05T02:16:27;3.10;;;2.00;;
37715;SDS011;23562;50.540;12.504;2023-06-05T02:18:53;2.53;;;1.70;;
37715;SDS011;23562;50.540;12.504;2023-06-05T02:21:21;2.55;;;1.80;;
37715;SDS011;23562;50.540;12.504;2023-06-05T02:23:47;3.27;;;2.00;;
37715;SDS011;23562;50.540;12.504;2023-06-05T02:26:12;4.85;;;2.03;;
37715;SDS011;23562;50.540;12.504;2023-06-05T02:28:37;6.30;;;2.13;;
37715;SDS011;23562;50.540;12.504;2023-06-05T02:31:02;2.45;;;1.83;;
37715;SDS011;23562;50.540;12.504;2023-06-05T02:33:29;4.00;;;1.90;;
37715;SDS011;23562;50.540;12.504;2023-06-05T02:35:55;3.20;;;2.07;;
37715;SDS011;23562;50.540;12.504;2023-06-05T02:38:21;4.50;;;2.20;;
37715;SDS011;23562;50.540;12.504;2023-06-05T02:40:46;3.80;;;1.95;;
37715;SDS011;23562;50.540;12.504;2023-06-05T02:46:14;4.38;;;2.35;;
37715;SDS011;23562;50.540;12.504;2023-06-05T02:48:39;4.60;;;2.57;;
37715;SDS011;23562;50.540;12.504;2023-06-05T02:51:04;4.57;;;2.30;;
37715;SDS011;23562;50.540;12.504;2023-06-05T02:53:31;5.88;;;2.72;;
37715;SDS011;23562;50.540;12.504;2023-06-05T02:55:56;7.60;;;2.75;;
37715;SDS011;23562;50.540;12.504;2023-06-05T03:01:18;5.30;;;2.67;;
37715;SDS011;23562;50.540;12.504;2023-06-05T03:03:46;5.05;;;2.70;;
37715;SDS011;23562;50.540;12.504;2023-06-05T03:06:13;3.95;;;2.20;;
37715;SDS011;23562;50.540;12.504;2023-06-05T03:08:42;3.00;;;2.20;;
37715;SDS011;23562;50.540;12.504;2023-06-05T03:11:07;4.72;;;2.65;;
37715;SDS011;23562;50.540;12.504;2023-06-05T03:13:32;5.53;;;2.20;;
37715;SDS011;23562;50.540;12.504;2023-06-05T03:15:58;3.35;;;2.00;;
37715;SDS011;23562;50.540;12.504;2023-06-05T03:18:25;2.75;;;1.85;;
37715;SDS011;23562;50.540;12.504;2023-06-05T03:20:51;3.97;;;2.10;;
37715;SDS011;23562;50.540;12.504;2023-06-05T03:23:19;4.32;;;2.00;;
37715;SDS011;23562;50.540;12.504;2023-06-05T03:25:44;4.60;;;2.33;;
37715;SDS011;23562;50.540;12.504;2023-06-05T03:28:10;2.50;;;1.75;;
37715;SDS011;23562;50.540;12.504;2023-06-05T03:30:35;3.73;;;2.13;;
37715;SDS011;23562;50.540;12.504;2023-06-05T03:33:00;6.28;;;2.10;;
37715;SDS011;23562;50.540;12.504;2023-06-05T03:35:26;6.55;;;2.55;;
37715;SDS011;23562;50.540;12.504;2023-06-05T03:37:52;4.88;;;2.40;;
37715;SDS011;23562;50.540;12.504;2023-06-05T03:40:17;9.20;;;2.50;;
37715;SDS011;23562;50.540;12.504;2023-06-05T03:42:43;7.65;;;2.55;;
37715;SDS011;23562;50.540;12.504;2023-06-05T03:45:08;6.50;;;2.10;;
37715;SDS011;23562;50.540;12.504;2023-06-05T03:47:33;4.28;;;2.15;;
37715;SDS011;23562;50.540;12.504;2023-06-05T03:49:59;4.45;;;2.17;;
37715;SDS011;23562;50.540;12.504;2023-06-05T03:52:25;6.18;;;2.33;;
37715;SDS011;23562;50.540;12.504;2023-06-05T03:54:50;7.47;;;2.50;;
37715;SDS011;23562;50.540;12.504;2023-06-05T03:57:19;5.85;;;2.60;;
37715;SDS011;23562;50.540;12.504;2023-06-05T03:59:45;6.72;;;2.40;;
37715;SDS011;23562;50.540;12.504;2023-06-05T04:02:11;6.72;;;2.70;;
37715;SDS011;23562;50.540;12.504;2023-06-05T04:04:36;5.53;;;2.50;;
37715;SDS011;23562;50.540;12.504;2023-06-05T04:07:02;5.63;;;2.80;;
37715;SDS011;23562;50.540;12.504;2023-06-05T04:09:27;4.07;;;2.57;;
37715;SDS011;23562;50.540;12.504;2023-06-05T04:11:52;3.70;;;2.30;;
37715;SDS011;23562;50.540;12.504;2023-06-05T04:14:17;4.03;;;2.30;;
37715;SDS011;23562;50.540;12.504;2023-06-05T04:16:42;3.78;;;2.13;;
37715;SDS011;23562;50.540;12.504;2023-06-05T04:19:09;4.47;;;2.30;;
37715;SDS011;23562;50.540;12.504;2023-06-05T04:21:37;3.67;;;2.17;;
37715;SDS011;23562;50.540;12.504;2023-06-05T04:24:05;5.05;;;2.40;;
37715;SDS011;23562;50.540;12.504;2023-06-05T04:26:35;5.15;;;2.58;;
37715;SDS011;23562;50.540;12.504;2023-06-05T04:29:00;6.93;;;3.15;;
37715;SDS011;23562;50.540;12.504;2023-06-05T04:31:28;8.25;;;3.22;;
37715;SDS011;23562;50.540;12.504;2023-06-05T04:33:53;5.95;;;3.17;;
37715;SDS011;23562;50.540;12.504;2023-06-05T04:36:18;5.45;;;2.95;;
37715;SDS011;23562;50.540;12.504;2023-06-05T04:38:44;4.80;;;2.33;;
37715;SDS011;23562;50.540;12.504;2023-06-05T04:41:10;18.92;;;15.40;;
37715;SDS011;23562;50.540;12.504;2023-06-05T04:43:36;265.13;;;143.10;;
37715;SDS011;23562;50.540;12.504;2023-06-05T04:46:01;722.55;;;423.83;;
37715;SDS011;23562;50.540;12.504;2023-06-05T04:48:26;644.05;;;321.33;;
37715;SDS011;23562;50.540;12.504;2023-06-05T04:50:56;883.03;;;481.73;;
37715;SDS011;23562;50.540;12.504;2023-06-05T04:53:23;750.97;;;451.05;;
37715;SDS011;23562;50.540;12.504;2023-06-05T04:55:48;697.05;;;425.48;;
37715;SDS011;23562;50.540;12.504;2023-06-05T04:58:14;730.58;;;415.85;;
37715;SDS011;23562;50.540;12.504;2023-06-05T05:00:41;427.45;;;226.63;;
37715;SDS011;23562;50.540;12.504;2023-06-05T05:03:07;239.65;;;125.63;;
37715;SDS011;23562;50.540;12.504;2023-06-05T05:05:33;135.00;;;72.85;;
37715;SDS011;23562;50.540;12.504;2023-06-05T05:08:00;76.05;;;43.38;;
37715;SDS011;23562;50.540;12.504;2023-06-05T05:10:26;16.05;;;7.90;;
37715;SDS011;23562;50.540;12.504;2023-06-05T05:12:51;10.35;;;6.40;;
37715;SDS011;23562;50.540;12.504;2023-06-05T05:15:16;9.38;;;6.10;;
37715;SDS011;23562;50.540;12.504;2023-06-05T05:17:41;7.38;;;4.72;;
37715;SDS011;23562;50.540;12.504;2023-06-05T05:20:06;7.32;;;3.70;;
37715;SDS011;23562;50.540;12.504;2023-06-05T05:22:32;9.90;;;4.47;;
37715;SDS011;23562;50.540;12.504;2023-06-05T05:24:57;10.30;;;5.30;;
37715;SDS011;23562;50.540;12.504;2023-06-05T05:27:22;8.63;;;4.72;;
37715;SDS011;23562;50.540;12.504;2023-06-05T05:29:49;8.38;;;4.13;;
37715;SDS011;23562;50.540;12.504;2023-06-05T05:32:14;9.23;;;4.20;;
37715;SDS011;23562;50.540;12.504;2023-06-05T05:34:39;11.98;;;3.50;;
37715;SDS011;23562;50.540;12.504;2023-06-05T05:37:05;5.18;;;2.58;;
37715;SDS011;23562;50.540;12.504;2023-06-05T05:39:30;4.72;;;2.50;;
37715;SDS011;23562;50.540;12.504;2023-06-05T05:41:55;4.38;;;2.00;;
37715;SDS011;23562;50.540;12.504;2023-06-05T05:44:20;5.28;;;2.47;;
37715;SDS011;23562;50.540;12.504;2023-06-05T05:46:46;4.07;;;2.40;;
37715;SDS011;23562;50.540;12.504;2023-06-05T05:49:12;3.65;;;2.28;;
37715;SDS011;23562;50.540;12.504;2023-06-05T05:51:37;4.70;;;2.65;;
37715;SDS011;23562;50.540;12.504;2023-06-05T05:54:02;3.53;;;2.45;;
37715;SDS011;23562;50.540;12.504;2023-06-05T05:56:28;7.75;;;2.65;;
37715;SDS011;23562;50.540;12.504;2023-06-05T05:58:53;8.90;;;3.03;;
37715;SDS011;23562;50.540;12.504;2023-06-05T06:01:18;4.40;;;2.88;;
37715;SDS011;23562;50.540;12.504;2023-06-05T06:03:44;4.53;;;2.67;;
37715;SDS011;23562;50.540;12.504;2023-06-05T06:06:09;7.63;;;2.57;;
37715;SDS011;23562;50.540;12.504;2023-06-05T06:08:35;3.88;;;2.30;;
37715;SDS011;23562;50.540;12.504;2023-06-05T06:11:00;3.92;;;2.50;;
37715;SDS011;23562;50.540;12.504;2023-06-05T06:13:25;3.38;;;2.55;;
37715;SDS011;23562;50.540;12.504;2023-06-05T06:15:51;6.50;;;3.45;;
37715;SDS011;23562;50.540;12.504;2023-06-05T06:18:16;5.53;;;4.28;;
37715;SDS011;23562;50.540;12.504;2023-06-05T06:20:50;3.72;;;2.17;;
37715;SDS011;23562;50.540;12.504;2023-06-05T06:23:15;8.40;;;3.42;;
37715;SDS011;23562;50.540;12.504;2023-06-05T06:25:40;8.93;;;3.20;;
37715;SDS011;23562;50.540;12.504;2023-06-05T06:28:05;7.07;;;3.40;;
37715;SDS011;23562;50.540;12.504;2023-06-05T06:30:31;4.63;;;2.55;;
37715;SDS011;23562;50.540;12.504;2023-06-05T06:32:56;6.33;;;3.27;;
37715;SDS011;23562;50.540;12.504;2023-06-05T06:35:23;5.00;;;2.72;;
37715;SDS011;23562;50.540;12.504;2023-06-05T06:37:49;6.30;;;2.50;;
37715;SDS011;23562;50.540;12.504;2023-06-05T06:40:17;5.68;;;3.35;;
37715;SDS011;23562;50.540;12.504;2023-06-05T06:42:42;5.72;;;2.72;;
37715;SDS011;23562;50.540;12.504;2023-06-05T06:45:07;3.38;;;2.40;;
37715;SDS011;23562;50.540;12.504;2023-06-05T06:47:33;4.20;;;2.55;;
37715;SDS011;23562;50.540;12.504;2023-06-05T06:49:58;6.22;;;3.45;;
37715;SDS011;23562;50.540;12.504;2023-06-05T06:52:23;7.20;;;3.93;;
37715;SDS011;23562;50.540;12.504;2023-06-05T06:54:49;5.70;;;3.43;;
37715;SDS011;23562;50.540;12.504;2023-06-05T06:57:14;4.93;;;3.05;;
37715;SDS011;23562;50.540;12.504;2023-06-05T06:59:39;6.85;;;2.80;;
37715;SDS011;23562;50.540;12.504;2023-06-05T07:04:34;7.22;;;2.85;;
37715;SDS011;23562;50.540;12.504;2023-06-05T07:06:59;5.57;;;3.13;;
37715;SDS011;23562;50.540;12.504;2023-06-05T07:09:24;5.63;;;3.17;;
37715;SDS011;23562;50.540;12.504;2023-06-05T07:11:50;4.30;;;3.00;;
37715;SDS011;23562;50.540;12.504;2023-06-05T07:14:15;7.40;;;3.10;;
37715;SDS011;23562;50.540;12.504;2023-06-05T07:16:40;4.57;;;2.80;;
37715;SDS011;23562;50.540;12.504;2023-06-05T07:19:05;5.07;;;3.15;;
37715;SDS011;23562;50.540;12.504;2023-06-05T07:21:30;8.10;;;3.63;;
37715;SDS011;23562;50.540;12.504;2023-06-05T07:23:59;5.90;;;3.40;;
37715;SDS011;23562;50.540;12.504;2023-06-05T07:26:25;6.95;;;3.15;;
37715;SDS011;23562;50.540;12.504;2023-06-05T07:28:50;5.27;;;3.30;;
37715;SDS011;23562;50.540;12.504;2023-06-05T07:31:15;9.20;;;3.20;;
37715;SDS011;23562;50.540;12.504;2023-06-05T07:33:42;6.38;;;3.53;;
37715;SDS011;23562;50.540;12.504;2023-06-05T07:36:07;10.77;;;3.50;;
37715;SDS011;23562;50.540;12.504;2023-06-05T07:38:32;4.70;;;3.10;;
37715;SDS011;23562;50.540;12.504;2023-06-05T07:40:57;5.75;;;2.97;;
37715;SDS011;23562;50.540;12.504;2023-06-05T07:43:23;5.93;;;3.13;;
37715;SDS011;23562;50.540;12.504;2023-06-05T07:45:49;7.53;;;3.38;;
37715;SDS011;23562;50.540;12.504;2023-06-05T07:48:14;4.55;;;3.15;;
37715;SDS011;23562;50.540;12.504;2023-06-05T07:50:39;6.65;;;3.10;;
37715;SDS011;23562;50.540;12.504;2023-06-05T07:53:05;6.68;;;3.72;;
37715;SDS011;23562;50.540;12.504;2023-06-05T07:55:30;6.80;;;3.47;;
37715;SDS011;23562;50.540;12.504;2023-06-05T07:57:55;7.40;;;3.40;;
37715;SDS011;23562;50.540;12.504;2023-06-05T08:00:21;9.40;;;3.95;;
37715;SDS011;23562;50.540;12.504;2023-06-05T08:02:46;8.35;;;3.63;;
37715;SDS011;23562;50.540;12.504;2023-06-05T08:05:13;5.57;;;3.67;;
37715;SDS011;23562;50.540;12.504;2023-06-05T08:07:39;7.13;;;4.07;;
37715;SDS011;23562;50.540;12.504;2023-06-05T08:10:05;5.47;;;3.70;;
37715;SDS011;23562;50.540;12.504;2023-06-05T08:12:30;5.32;;;3.53;;
37715;SDS011;23562;50.540;12.504;2023-06-05T08:14:56;7.38;;;3.90;;
37715;SDS011;23562;50.540;12.504;2023-06-05T08:17:21;4.93;;;3.70;;
37715;SDS011;23562;50.540;12.504;2023-06-05T08:19:46;6.30;;;3.87;;
37715;SDS011;23562;50.540;12.504;2023-06-05T08:22:11;6.82;;;3.78;;
37715;SDS011;23562;50.540;12.504;2023-06-05T08:24:37;6.82;;;3.80;;
37715;SDS011;23562;50.540;12.504;2023-06-05T08:27:02;6.22;;;3.97;;
37715;SDS011;23562;50.540;12.504;2023-06-05T08:29:27;7.27;;;3.80;;
37715;SDS011;23562;50.540;12.504;2023-06-05T08:31:52;5.88;;;3.40;;
37715;SDS011;23562;50.540;12.504;2023-06-05T08:34:18;7.97;;;3.97;;
37715;SDS011;23562;50.540;12.504;2023-06-05T08:36:43;7.70;;;4.00;;
37715;SDS011;23562;50.540;12.504;2023-06-05T08:39:09;8.40;;;3.85;;
37715;SDS011;23562;50.540;12.504;2023-06-05T08:41:34;10.70;;;4.13;;
37715;SDS011;23562;50.540;12.504;2023-06-05T08:44:00;7.32;;;3.70;;
37715;SDS011;23562;50.540;12.504;2023-06-05T08:46:27;7.25;;;4.43;;
37715;SDS011;23562;50.540;12.504;2023-06-05T08:48:52;7.72;;;4.07;;
37715;SDS011;23562;50.540;12.504;2023-06-05T08:51:18;7.85;;;3.95;;
37715;SDS011;23562;50.540;12.504;2023-06-05T08:53:48;5.93;;;4.20;;
37715;SDS011;23562;50.540;12.504;2023-06-05T08:56:15;12.32;;;5.45;;
37715;SDS011;23562;50.540;12.504;2023-06-05T08:58:41;6.22;;;4.00;;
37715;SDS011;23562;50.540;12.504;2023-06-05T09:01:07;6.85;;;4.05;;
37715;SDS011;23562;50.540;12.504;2023-06-05T09:03:33;10.10;;;5.83;;
37715;SDS011;23562;50.540;12.504;2023-06-05T09:05:58;10.30;;;6.43;;
37715;SDS011;23562;50.540;12.504;2023-06-05T09:08:31;7.53;;;5.35;;
37715;SDS011;23562;50.540;12.504;2023-06-05T09:13:44;6.28;;;4.93;;
37715;SDS011;23562;50.540;12.504;2023-06-05T09:16:09;10.15;;;6.20;;
37715;SDS011;23562;50.540;12.504;2023-06-05T09:18:34;9.27;;;5.10;;
37715;SDS011;23562;50.540;12.504;2023-06-05T09:21:11;6.78;;;4.90;;
37715;SDS011;23562;50.540;12.504;2023-06-05T09:23:36;8.52;;;5.55;;
37715;SDS011;23562;50.540;12.504;2023-06-05T09:26:01;10.82;;;5.95;;
37715;SDS011;23562;50.540;12.504;2023-06-05T09:28:28;6.90;;;5.57;;
37715;SDS011;23562;50.540;12.504;2023-06-05T09:31:00;7.65;;;5.07;;
37715;SDS011;23562;50.540;12.504;2023-06-05T09:33:29;9.00;;;5.50;;
37715;SDS011;23562;50.540;12.504;2023-06-05T09:38:26;14.73;;;5.95;;
37715;SDS011;23562;50.540;12.504;2023-06-05T09:41:04;8.98;;;5.20;;
37715;SDS011;23562;50.540;12.504;2023-06-05T09:43:29;7.78;;;5.38;;
37715;SDS011;23562;50.540;12.504;2023-06-05T09:45:55;12.33;;;5.93;;
37715;SDS011;23562;50.540;12.504;2023-06-05T09:48:20;8.65;;;5.43;;
37715;SDS011;23562;50.540;12.504;2023-06-05T09:50:45;7.35;;;5.03;;
37715;SDS011;23562;50.540;12.504;2023-06-05T09:53:10;9.23;;;4.80;;
37715;SDS011;23562;50.540;12.504;2023-06-05T09:55:39;9.38;;;5.30;;
37715;SDS011;23562;50.540;12.504;2023-06-05T09:58:04;15.30;;;5.65;;
37715;SDS011;23562;50.540;12.504;2023-06-05T10:00:38;8.88;;;5.82;;
37715;SDS011;23562;50.540;12.504;2023-06-05T10:03:05;8.32;;;5.03;;
37715;SDS011;23562;50.540;12.504;2023-06-05T10:05:32;7.82;;;5.15;;
37715;SDS011;23562;50.540;12.504;2023-06-05T10:07:58;7.07;;;4.90;;
37715;SDS011;23562;50.540;12.504;2023-06-05T10:10:23;9.20;;;5.40;;
37715;SDS011;23562;50.540;12.504;2023-06-05T10:12:49;8.10;;;5.03;;
37715;SDS011;23562;50.540;12.504;2023-06-05T10:15:14;9.67;;;5.00;;
37715;SDS011;23562;50.540;12.504;2023-06-05T10:17:39;9.30;;;5.38;;
37715;SDS011;23562;50.540;12.504;2023-06-05T10:20:06;7.50;;;5.22;;
37715;SDS011;23562;50.540;12.504;2023-06-05T10:22:32;5.75;;;4.93;;
37715;SDS011;23562;50.540;12.504;2023-06-05T10:24:59;8.98;;;4.82;;
37715;SDS011;23562;50.540;12.504;2023-06-05T10:30:28;8.50;;;4.82;;
37715;SDS011;23562;50.540;12.504;2023-06-05T10:33:05;6.07;;;4.57;;
37715;SDS011;23562;50.540;12.504;2023-06-05T10:38:19;6.88;;;4.90;;
37715;SDS011;23562;50.540;12.504;2023-06-05T10:40:46;8.30;;;4.80;;
37715;SDS011;23562;50.540;12.504;2023-06-05T10:43:24;8.27;;;4.90;;
37715;SDS011;23562;50.540;12.504;2023-06-05T10:45:50;7.82;;;4.88;;
37715;SDS011;23562;50.540;12.504;2023-06-05T10:48:15;7.80;;;4.87;;
37715;SDS011;23562;50.540;12.504;2023-06-05T10:50:41;7.47;;;5.05;;
37715;SDS011;23562;50.540;12.504;2023-06-05T10:53:06;7.10;;;5.05;;
37715;SDS011;23562;50.540;12.504;2023-06-05T10:55:40;7.38;;;4.70;;
37715;SDS011;23562;50.540;12.504;2023-06-05T10:58:07;8.95;;;5.07;;
37715;SDS011;23562;50.540;12.504;2023-06-05T11:00:33;7.10;;;5.40;;
37715;SDS011;23562;50.540;12.504;2023-06-05T11:02:59;7.32;;;5.13;;
37715;SDS011;23562;50.540;12.504;2023-06-05T11:05:25;6.80;;;4.80;;
37715;SDS011;23562;50.540;12.504;2023-06-05T11:10:34;10.00;;;5.10;;
37715;SDS011;23562;50.540;12.504;2023-06-05T11:13:00;9.30;;;5.30;;
37715;SDS011;23562;50.540;12.504;2023-06-05T11:17:53;8.35;;;5.20;;
37715;SDS011;23562;50.540;12.504;2023-06-05T11:27:52;8.65;;;5.07;;
37715;SDS011;23562;50.540;12.504;2023-06-05T11:30:19;8.75;;;4.93;;
37715;SDS011;23562;50.540;12.504;2023-06-05T11:32:44;8.48;;;4.72;;
37715;SDS011;23562;50.540;12.504;2023-06-05T11:35:10;7.03;;;4.88;;
37715;SDS011;23562;50.540;12.504;2023-06-05T11:37:35;6.68;;;4.75;;
37715;SDS011;23562;50.540;12.504;2023-06-05T11:40:01;6.20;;;5.00;;
37715;SDS011;23562;50.540;12.504;2023-06-05T11:42:30;8.65;;;4.70;;
37715;SDS011;23562;50.540;12.504;2023-06-05T11:44:55;9.37;;;4.77;;
37715;SDS011;23562;50.540;12.504;2023-06-05T11:47:24;7.03;;;4.93;;
37715;SDS011;23562;50.540;12.504;2023-06-05T11:49:49;7.72;;;4.47;;
37715;SDS011;23562;50.540;12.504;2023-06-05T11:52:18;7.85;;;5.03;;
37715;SDS011;23562;50.540;12.504;2023-06-05T11:54:43;7.53;;;4.80;;
37715;SDS011;23562;50.540;12.504;2023-06-05T11:57:17;7.47;;;4.85;;
37715;SDS011;23562;50.540;12.504;2023-06-05T11:59:43;8.77;;;4.90;;
37715;SDS011;23562;50.540;12.504;2023-06-05T12:02:09;11.13;;;5.25;;
37715;SDS011;23562;50.540;12.504;2023-06-05T12:04:35;6.72;;;5.07;;
37715;SDS011;23562;50.540;12.504;2023-06-05T12:07:03;8.85;;;4.60;;
37715;SDS011;23562;50.540;12.504;2023-06-05T12:09:29;6.90;;;4.93;;
37715;SDS011;23562;50.540;12.504;2023-06-05T12:12:07;8.43;;;5.90;;
37715;SDS011;23562;50.540;12.504;2023-06-05T12:14:33;12.93;;;6.97;;
37715;SDS011;23562;50.540;12.504;2023-06-05T12:16:58;11.57;;;6.20;;
37715;SDS011;23562;50.540;12.504;2023-06-05T12:19:24;9.02;;;5.05;;
37715;SDS011;23562;50.540;12.504;2023-06-05T12:21:49;9.55;;;4.60;;
37715;SDS011;23562;50.540;12.504;2023-06-05T12:24:16;10.57;;;4.75;;
37715;SDS011;23562;50.540;12.504;2023-06-05T12:26:57;8.38;;;4.70;;
37715;SDS011;23562;50.540;12.504;2023-06-05T12:29:27;11.90;;;5.07;;
37715;SDS011;23562;50.540;12.504;2023-06-05T12:31:53;7.75;;;5.18;;
37715;SDS011;23562;50.540;12.504;2023-06-05T12:34:18;7.07;;;4.43;;
37715;SDS011;23562;50.540;12.504;2023-06-05T12:36:44;8.27;;;4.70;;
37715;SDS011;23562;50.540;12.504;2023-06-05T12:39:10;6.10;;;4.60;;
37715;SDS011;23562;50.540;12.504;2023-06-05T12:41:35;8.02;;;4.70;;
37715;SDS011;23562;50.540;12.504;2023-06-05T12:44:03;8.23;;;4.88;;
37715;SDS011;23562;50.540;12.504;2023-06-05T12:46:33;10.20;;;5.40;;
37715;SDS011;23562;50.540;12.504;2023-06-05T12:48:59;7.25;;;4.60;;
37715;SDS011;23562;50.540;12.504;2023-06-05T12:51:24;14.27;;;8.25;;
37715;SDS011;23562;50.540;12.504;2023-06-05T12:53:51;9.20;;;5.20;;
37715;SDS011;23562;50.540;12.504;2023-06-05T12:56:16;7.57;;;5.10;;
37715;SDS011;23562;50.540;12.504;2023-06-05T12:58:42;7.85;;;5.32;;
37715;SDS011;23562;50.540;12.504;2023-06-05T13:01:07;8.73;;;4.85;;
37715;SDS011;23562;50.540;12.504;2023-06-05T13:03:32;10.38;;;5.07;;
37715;SDS011;23562;50.540;12.504;2023-06-05T13:05:58;9.07;;;5.55;;
37715;SDS011;23562;50.540;12.504;2023-06-05T13:08:23;5.32;;;4.65;;
37715;SDS011;23562;50.540;12.504;2023-06-05T13:10:49;8.07;;;5.47;;
37715;SDS011;23562;50.540;12.504;2023-06-05T13:13:15;6.43;;;5.68;;
37715;SDS011;23562;50.540;12.504;2023-06-05T13:15:41;7.50;;;5.40;;
37715;SDS011;23562;50.540;12.504;2023-06-05T13:18:07;8.70;;;6.00;;
37715;SDS011;23562;50.540;12.504;2023-06-05T13:20:34;8.85;;;5.68;;
37715;SDS011;23562;50.540;12.504;2023-06-05T13:22:59;5.95;;;4.97;;
37715;SDS011;23562;50.540;12.504;2023-06-05T13:25:24;11.70;;;5.88;;
37715;SDS011;23562;50.540;12.504;2023-06-05T13:27:50;8.68;;;5.28;;
37715;SDS011;23562;50.540;12.504;2023-06-05T13:30:15;7.43;;;5.00;;
37715;SDS011;23562;50.540;12.504;2023-06-05T13:32:40;12.70;;;4.73;;
37715;SDS011;23562;50.540;12.504;2023-06-05T13:35:06;9.13;;;5.10;;
37715;SDS011;23562;50.540;12.504;2023-06-05T13:37:32;10.25;;;5.25;;
37715;SDS011;23562;50.540;12.504;2023-06-05T13:39:58;5.80;;;4.87;;
37715;SDS011;23562;50.540;12.504;2023-06-05T13:42:23;11.35;;;5.50;;
37715;SDS011;23562;50.540;12.504;2023-06-05T13:44:48;6.97;;;5.13;;
37715;SDS011;23562;50.540;12.504;2023-06-05T13:47:13;7.20;;;5.30;;
37715;SDS011;23562;50.540;12.504;2023-06-05T13:49:38;8.18;;;5.20;;
37715;SDS011;23562;50.540;12.504;2023-06-05T13:52:03;6.27;;;5.37;;
37715;SDS011;23562;50.540;12.504;2023-06-05T13:54:28;6.07;;;4.73;;
37715;SDS011;23562;50.540;12.504;2023-06-05T13:56:54;8.17;;;4.70;;
37715;SDS011;23562;50.540;12.504;2023-06-05T13:59:19;6.90;;;5.03;;
37715;SDS011;23562;50.540;12.504;2023-06-05T14:01:44;7.03;;;4.60;;
37715;SDS011;23562;50.540;12.504;2023-06-05T14:04:10;8.20;;;5.30;;
37715;SDS011;23562;50.540;12.504;2023-06-05T14:06:35;13.25;;;5.13;;
37715;SDS011;23562;50.540;12.504;2023-06-05T14:09:04;7.03;;;5.13;;
37715;SDS011;23562;50.540;12.504;2023-06-05T14:11:30;5.60;;;4.88;;
37715;SDS011;23562;50.540;12.504;2023-06-05T14:13:55;11.37;;;5.20;;
37715;SDS011;23562;50.540;12.504;2023-06-05T14:16:20;6.75;;;4.80;;
37715;SDS011;23562;50.540;12.504;2023-06-05T14:18:45;5.88;;;5.13;;
37715;SDS011;23562;50.540;12.504;2023-06-05T14:21:10;10.27;;;5.07;;
37715;SDS011;23562;50.540;12.504;2023-06-05T14:23:35;8.03;;;6.27;;
37715;SDS011;23562;50.540;12.504;2023-06-05T14:26:01;7.40;;;5.43;;
37715;SDS011;23562;50.540;12.504;2023-06-05T14:28:26;11.45;;;4.78;;
37715;SDS011;23562;50.540;12.504;2023-06-05T14:30:53;8.68;;;4.72;;
37715;SDS011;23562;50.540;12.504;2023-06-05T14:33:19;9.18;;;5.18;;
37715;SDS011;23562;50.540;12.504;2023-06-05T14:35:44;8.33;;;4.87;;
37715;SDS011;23562;50.540;12.504;2023-06-05T14:38:09;8.10;;;5.40;;
37715;SDS011;23562;50.540;12.504;2023-06-05T14:40:38;7.45;;;5.45;;
37715;SDS011;23562;50.540;12.504;2023-06-05T14:43:03;6.50;;;5.03;;
37715;SDS011;23562;50.540;12.504;2023-06-05T14:45:29;8.70;;;5.15;;
37715;SDS011;23562;50.540;12.504;2023-06-05T14:47:54;9.13;;;5.20;;
37715;SDS011;23562;50.540;12.504;2023-06-05T14:50:19;9.43;;;5.45;;
37715;SDS011;23562;50.540;12.504;2023-06-05T14:52:44;6.00;;;5.22;;
37715;SDS011;23562;50.540;12.504;2023-06-05T14:55:10;9.10;;;5.10;;
37715;SDS011;23562;50.540;12.504;2023-06-05T14:57:35;6.78;;;5.30;;